Time;durP1;ratioP1;P1;durP2;ratioP2;P2;SDS_P1;SDS_P2;PMS_P1;PMS_P2;Temp;Humidity;BMP_temperature;BMP_pressure;BME280_temperature;BME280_humidity;BME280_pressure;Samples;Min_cycle;Max_cycle;Signal;HPM_P1;HPM_P2
2022/07/14 00:00:30;;;;;;;5.25;1.80;;;;;;;13.00;100.00;93680.69;5090908;28;20044;-80
2022/07/14 00:02:57;;;;;;;3.30;1.95;;;;;;;13.04;100.00;93672.28;5105635;28;20131;-79
2022/07/14 00:05:25;;;;;;;2.17;1.50;;;;;;;13.07;100.00;93669.31;5091387;28;20065;-79
2022/07/14 00:07:51;;;;;;;2.63;1.70;;;;;;;13.02;100.00;93676.09;5090743;28;20553;-80
2022/07/14 00:10:18;;;;;;;2.15;1.70;;;;;;;12.92;100.00;93669.63;5091112;28;20098;-79
2022/07/14 00:12:45;;;;;;;6.40;2.13;;;;;;;12.83;100.00;93668.34;5090873;28;20089;-79
2022/07/14 00:15:12;;;;;;;3.35;1.80;;;;;;;12.65;100.00;93675.00;5090896;28;20113;-79
2022/07/14 00:17:38;;;;;;;2.20;1.48;;;;;;;12.71;100.00;93670.78;5090641;28;20577;-79
2022/07/14 00:20:06;;;;;;;2.80;1.60;;;;;;;12.66;100.00;93675.78;5090755;28;20048;-79
2022/07/14 00:22:34;;;;;;;4.78;1.58;;;;;;;12.64;100.00;93667.50;5090983;28;20471;-79
2022/07/14 00:25:01;;;;;;;3.03;1.33;;;;;;;12.68;100.00;93666.06;5090890;28;20040;-79
2022/07/14 00:27:27;;;;;;;3.25;1.65;;;;;;;12.74;100.00;93667.00;5090862;28;20048;-79
2022/07/14 00:29:54;;;;;;;2.63;1.70;;;;;;;12.68;100.00;93668.63;5090494;28;20455;-79
2022/07/14 00:32:21;;;;;;;2.90;1.50;;;;;;;12.65;100.00;93661.34;5090399;28;20105;-79
2022/07/14 00:34:47;;;;;;;3.80;1.60;;;;;;;12.70;100.00;93672.56;5090761;28;20056;-79
2022/07/14 00:37:14;;;;;;;2.80;1.73;;;;;;;12.60;100.00;93658.59;5109359;28;20447;-79
2022/07/14 00:39:58;;;;;;;2.97;1.85;;;;;;;12.63;100.00;93668.50;5096031;28;20044;-79
2022/07/14 00:42:34;;;;;;;2.05;1.38;;;;;;;12.69;100.00;93670.22;5090796;28;20869;-79
2022/07/14 00:45:02;;;;;;;3.85;1.65;;;;;;;12.45;100.00;93646.81;5090224;28;20048;-79
2022/07/14 00:47:29;;;;;;;5.20;1.90;;;;;;;12.58;100.00;93676.84;5104449;28;20048;-79
2022/07/14 00:49:56;;;;;;;2.72;1.88;;;;;;;12.55;100.00;93665.16;5091511;28;20052;-79
2022/07/14 00:52:25;;;;;;;2.35;1.52;;;;;;;12.52;100.00;93665.59;5092339;28;20077;-79
2022/07/14 00:54:54;;;;;;;2.90;1.73;;;;;;;12.49;100.00;93667.81;5089966;28;20108;-79
2022/07/14 00:57:21;;;;;;;3.47;1.70;;;;;;;12.35;100.00;93667.88;5090459;28;20059;-79
2022/07/14 00:59:49;;;;;;;2.05;1.55;;;;;;;12.07;100.00;93624.50;5089952;28;20044;-79
2022/07/14 01:02:17;;;;;;;2.45;1.70;;;;;;;12.25;100.00;93649.53;5089925;28;20086;-79
2022/07/14 01:04:45;;;;;;;2.42;1.58;;;;;;;12.24;100.00;93655.69;5090068;28;20188;-79
2022/07/14 01:07:12;;;;;;;2.60;1.85;;;;;;;12.21;100.00;93651.75;5089807;28;20055;-79
2022/07/14 01:09:39;;;;;;;2.63;1.98;;;;;;;12.24;100.00;93661.63;5089873;28;20047;-79
2022/07/14 01:12:08;;;;;;;2.85;2.33;;;;;;;12.23;100.00;93654.88;5090266;28;20044;-79
2022/07/14 01:14:36;;;;;;;2.97;2.00;;;;;;;12.15;100.00;93661.09;5089761;28;20044;-79
2022/07/14 01:17:03;;;;;;;2.85;1.95;;;;;;;12.16;100.00;93657.53;5089538;28;20040;-79
2022/07/14 01:19:30;;;;;;;3.85;1.80;;;;;;;12.17;100.00;93648.00;5089347;28;20044;-80
2022/07/14 01:21:59;;;;;;;8.95;3.53;;;;;;;12.18;100.00;93641.88;5089814;28;20067;-79
2022/07/14 01:24:28;;;;;;;4.00;2.08;;;;;;;12.14;100.00;93636.31;5089881;28;20098;-82
2022/07/14 01:26:55;;;;;;;6.30;1.75;;;;;;;12.18;100.00;93648.78;5089379;28;20048;-81
2022/07/14 01:29:23;;;;;;;3.30;1.80;;;;;;;12.00;100.00;93637.38;5089744;28;20138;-82
2022/07/14 01:31:49;;;;;;;4.28;2.15;;;;;;;12.04;100.00;93641.16;5088601;28;20626;-81
2022/07/14 01:34:17;;;;;;;2.42;1.73;;;;;;;11.97;100.00;93630.06;5089153;28;20442;-81
2022/07/14 01:36:43;;;;;;;3.85;1.65;;;;;;;11.94;100.00;93631.28;5103702;28;20054;-81
2022/07/14 01:39:12;;;;;;;2.78;2.00;;;;;;;11.88;100.00;93624.38;5099247;28;20460;-81
2022/07/14 01:41:38;;;;;;;3.22;1.77;;;;;;;11.90;100.00;93630.91;5089507;28;20425;-81
2022/07/14 01:44:05;;;;;;;3.40;1.65;;;;;;;11.81;100.00;93631.34;5089359;28;20044;-82
2022/07/14 01:46:32;;;;;;;3.08;1.98;;;;;;;11.89;100.00;93639.63;5099888;28;20097;-81
2022/07/14 01:48:59;;;;;;;5.05;1.92;;;;;;;11.80;100.00;93627.97;5092474;28;20405;-81
2022/07/14 01:51:26;;;;;;;2.80;2.00;;;;;;;11.71;100.00;93611.22;5089528;28;20086;-79
2022/07/14 01:53:53;;;;;;;3.00;1.70;;;;;;;11.67;100.00;93622.91;5089517;28;20159;-78
2022/07/14 01:56:22;;;;;;;2.63;1.85;;;;;;;11.60;100.00;93626.31;5089444;28;20398;-78
2022/07/14 01:58:49;;;;;;;4.38;1.80;;;;;;;11.57;100.00;93619.00;5089323;28;20094;-78
2022/07/14 02:04:02;;;;;;;3.50;1.70;;;;;;;11.65;100.00;93630.84;5089131;28;20054;-77
2022/07/14 02:06:29;;;;;;;2.83;1.60;;;;;;;11.52;100.00;93621.41;5089255;28;20039;-79
2022/07/14 02:08:56;;;;;;;2.42;1.85;;;;;;;11.55;100.00;93639.00;5089219;28;20140;-79
2022/07/14 02:14:20;;;;;;;2.67;1.55;;;;;;;11.46;100.00;93647.94;5026391;28;21424;-79
2022/07/14 02:16:47;;;;;;;3.42;1.60;;;;;;;11.49;100.00;93650.13;5073958;28;20040;-79
2022/07/14 02:19:14;;;;;;;3.03;1.98;;;;;;;11.52;100.00;93648.91;5088964;28;20048;-80
2022/07/14 02:21:42;;;;;;;3.42;1.75;;;;;;;11.47;100.00;93642.59;5089146;28;20041;-80
2022/07/14 02:24:10;;;;;;;3.88;1.80;;;;;;;11.48;100.00;93648.53;5089137;28;20160;-80
2022/07/14 02:26:38;;;;;;;2.75;2.00;;;;;;;11.34;100.00;93627.22;5088742;28;20044;-81
2022/07/14 02:29:06;;;;;;;3.28;1.83;;;;;;;11.34;100.00;93630.56;5089187;28;20044;-80
2022/07/14 02:31:32;;;;;;;4.65;1.65;;;;;;;11.43;100.00;93648.38;5088663;28;20040;-80
2022/07/14 02:34:00;;;;;;;2.80;1.67;;;;;;;11.40;100.00;93653.91;5088783;28;20498;-80
2022/07/14 02:36:27;;;;;;;3.03;1.98;;;;;;;11.41;100.00;93652.91;5100681;28;20047;-79
2022/07/14 02:38:53;;;;;;;4.47;1.75;;;;;;;11.43;100.00;93654.28;5101216;28;20048;-78
2022/07/14 02:41:20;;;;;;;8.25;2.55;;;;;;;11.47;100.00;93657.22;5103379;28;20440;-79
2022/07/14 02:43:49;;;;;;;3.97;1.70;;;;;;;11.46;100.00;93653.88;5105327;28;20562;-79
2022/07/14 02:46:16;;;;;;;4.95;1.90;;;;;;;11.38;100.00;93656.66;5105337;28;20093;-79
2022/07/14 02:48:42;;;;;;;4.47;1.95;;;;;;;11.31;100.00;93658.47;5098340;28;20571;-78
2022/07/14 02:51:10;;;;;;;4.55;1.90;;;;;;;11.34;100.00;93658.09;5092517;28;20105;-78
2022/07/14 02:53:37;;;;;;;3.67;2.17;;;;;;;11.32;100.00;93654.91;5092887;28;20394;-78
2022/07/14 02:56:05;;;;;;;4.15;2.08;;;;;;;11.31;100.00;93658.47;5092292;28;20101;-78
2022/07/14 02:58:33;;;;;;;2.30;1.85;;;;;;;11.25;100.00;93649.00;5092297;28;20086;-78
2022/07/14 03:01:01;;;;;;;3.15;1.73;;;;;;;11.20;100.00;93663.25;5092443;28;20040;-77
2022/07/14 03:03:28;;;;;;;7.43;2.05;;;;;;;11.17;100.00;93658.53;5092446;28;20090;-77
2022/07/14 03:05:54;;;;;;;4.45;1.98;;;;;;;11.15;100.00;93670.00;5092591;28;20128;-77
2022/07/14 03:08:21;;;;;;;3.55;1.92;;;;;;;11.07;100.00;93673.56;5092302;28;20040;-79
2022/07/14 03:10:49;;;;;;;7.80;2.45;;;;;;;11.11;100.00;93677.31;5092060;28;20567;-80
2022/07/14 03:13:15;;;;;;;3.83;2.15;;;;;;;11.09;100.00;93672.38;5092314;28;20040;-80
2022/07/14 03:15:42;;;;;;;5.63;2.42;;;;;;;11.13;100.00;93680.47;5089917;28;20048;-80
2022/07/14 03:18:12;;;;;;;3.95;2.15;;;;;;;11.05;100.00;93671.19;5090111;28;20455;-80
2022/07/14 03:20:39;;;;;;;4.97;2.40;;;;;;;11.14;100.00;93681.25;5092144;28;20322;-80
2022/07/14 03:23:06;;;;;;;3.65;2.30;;;;;;;11.11;100.00;93676.53;5092193;28;20466;-80
2022/07/14 03:25:32;;;;;;;7.95;2.22;;;;;;;11.20;100.00;93680.47;5091856;28;20066;-80
2022/07/14 03:27:59;;;;;;;3.83;2.10;;;;;;;11.17;100.00;93688.59;5091794;28;20059;-80
2022/07/14 03:30:26;;;;;;;4.70;2.40;;;;;;;11.20;100.00;93673.53;5092206;28;20109;-81
2022/07/14 03:32:53;;;;;;;7.30;2.75;;;;;;;11.23;100.00;93683.44;5091715;28;20059;-80
2022/07/14 03:46:53;;;;;;;6.33;2.30;;;;;;;12.29;100.00;93684.19;5070612;27;1321695;-78
2022/07/14 03:49:20;;;;;;;3.50;1.85;;;;;;;12.15;100.00;93689.44;5106196;28;20074;-78
2022/07/14 03:51:47;;;;;;;2.95;1.80;;;;;;;11.94;100.00;93687.91;5105966;28;20126;-78
2022/07/14 03:54:14;;;;;;;4.80;1.90;;;;;;;11.70;100.00;93661.88;5106391;28;20435;-79
2022/07/14 03:56:41;;;;;;;3.83;1.80;;;;;;;11.69;100.00;93680.09;5103608;28;20085;-79
2022/07/14 03:59:07;;;;;;;3.15;1.90;;;;;;;11.71;100.00;93685.84;5105404;28;20526;-79
2022/07/14 04:01:34;;;;;;;3.60;1.98;;;;;;;11.69;100.00;93691.19;5106247;28;20428;-78
2022/07/14 04:04:03;;;;;;;3.20;2.13;;;;;;;11.69;100.00;93685.25;5106243;28;20044;-78
2022/07/14 04:06:30;;;;;;;3.63;1.88;;;;;;;11.59;100.00;93671.06;5106185;28;20040;-78
2022/07/14 04:08:57;;;;;;;2.35;1.67;;;;;;;11.68;100.00;93679.34;5104892;28;20085;-78
2022/07/14 04:11:24;;;;;;;3.05;1.60;;;;;;;11.74;100.00;93685.44;5106058;28;20400;-78
2022/07/14 04:13:50;;;;;;;3.90;1.55;;;;;;;11.73;100.00;93694.94;5105489;28;20073;-78
2022/07/14 04:16:17;;;;;;;7.40;2.00;;;;;;;11.75;100.00;93687.00;5106017;28;20109;-78
2022/07/14 04:18:44;;;;;;;2.75;1.83;;;;;;;11.76;100.00;93679.09;5105843;28;20047;-78
2022/07/14 04:21:12;;;;;;;4.75;1.90;;;;;;;11.84;100.00;93677.25;5105449;28;20040;-78
2022/07/14 04:23:39;;;;;;;3.00;1.80;;;;;;;11.89;100.00;93692.88;5105610;28;20553;-78
2022/07/14 04:26:05;;;;;;;4.18;2.08;;;;;;;11.87;100.00;93692.31;5105763;28;20113;-78
2022/07/14 04:28:32;;;;;;;4.82;2.40;;;;;;;11.83;100.00;93676.50;5105488;28;20451;-78
2022/07/14 04:30:59;;;;;;;4.47;2.05;;;;;;;11.80;100.00;93701.84;5105746;28;20092;-78
2022/07/14 04:33:26;;;;;;;4.60;1.90;;;;;;;11.68;100.00;93699.91;5105788;28;20093;-78
2022/07/14 04:35:52;;;;;;;3.42;1.67;;;;;;;11.76;100.00;93698.91;5081167;28;20044;-78
2022/07/14 04:38:21;;;;;;;5.07;1.80;;;;;;;11.77;100.00;93697.91;5064682;28;20532;-78
2022/07/14 04:40:49;;;;;;;2.45;1.42;;;;;;;11.84;100.00;93690.13;5064803;28;20044;-77
2022/07/14 04:43:16;;;;;;;6.43;2.30;;;;;;;11.92;100.00;93687.34;5065040;28;20114;-77
2022/07/14 04:45:43;;;;;;;2.92;1.75;;;;;;;12.01;100.00;93693.84;5064526;28;20053;-77
2022/07/14 04:48:10;;;;;;;3.00;1.90;;;;;;;12.20;100.00;93693.16;5050917;28;20049;-78
2022/07/14 04:53:22;;;;;;;11.48;5.30;;;;;;;12.41;100.00;93703.13;5051679;28;20068;-78
2022/07/14 04:55:49;;;;;;;11.25;3.80;;;;;;;12.50;100.00;93695.16;5051316;28;20048;-78
2022/07/14 04:58:16;;;;;;;12.27;4.50;;;;;;;12.68;100.00;93699.56;5051870;28;20052;-78
2022/07/14 05:00:43;;;;;;;5.80;3.05;;;;;;;12.69;100.00;93703.75;5051136;28;20049;-78
2022/07/14 05:03:10;;;;;;;16.83;4.13;;;;;;;12.83;100.00;93705.19;5051629;28;20044;-78
2022/07/14 05:05:37;;;;;;;4.53;2.60;;;;;;;12.95;100.00;93699.34;5051447;28;20045;-78
2022/07/14 05:08:04;;;;;;;7.38;3.00;;;;;;;13.01;100.00;93697.72;5051060;28;20103;-78
2022/07/14 05:10:32;;;;;;;4.15;2.60;;;;;;;13.19;100.00;93694.38;5050922;28;20087;-78
2022/07/14 05:12:58;;;;;;;6.00;2.80;;;;;;;13.27;100.00;93696.69;5051052;28;20037;-77
2022/07/14 05:15:25;;;;;;;5.40;2.40;;;;;;;13.39;100.00;93689.03;5050509;28;20453;-76
2022/07/14 05:17:52;;;;;;;6.63;2.88;;;;;;;13.59;100.00;93706.09;5050728;28;20036;-76
2022/07/14 05:20:19;;;;;;;6.63;2.30;;;;;;;13.80;100.00;93693.75;5050826;28;20059;-77
2022/07/14 05:22:46;;;;;;;4.57;2.15;;;;;;;13.90;100.00;93691.44;5050587;28;20083;-77
2022/07/14 05:25:13;;;;;;;4.40;2.00;;;;;;;14.00;100.00;93696.09;5050619;28;20094;-76
2022/07/14 05:27:42;;;;;;;3.30;2.00;;;;;;;14.12;100.00;93694.34;5050470;28;20045;-77
2022/07/14 05:30:10;;;;;;;4.03;2.45;;;;;;;14.34;100.00;93704.19;5050550;28;20052;-79
2022/07/14 05:32:38;;;;;;;6.03;2.30;;;;;;;14.47;100.00;93705.78;5050760;28;20068;-77
2022/07/14 05:35:06;;;;;;;4.10;2.25;;;;;;;14.67;100.00;93702.09;5050022;28;20045;-79
2022/07/14 05:37:33;;;;;;;2.58;1.70;;;;;;;14.96;100.00;93702.28;5050633;28;20045;-79
2022/07/14 05:39:59;;;;;;;3.20;1.67;;;;;;;15.09;99.52;93699.47;5050534;28;20041;-78
2022/07/14 05:42:26;;;;;;;3.55;1.92;;;;;;;15.32;100.00;93695.28;5050773;28;20522;-77
2022/07/14 05:44:54;;;;;;;3.63;1.77;;;;;;;15.60;100.00;93698.97;5050008;28;20083;-78
2022/07/14 05:47:21;;;;;;;6.15;1.85;;;;;;;15.97;96.06;93691.94;5051390;28;20041;-78
2022/07/14 05:49:48;;;;;;;3.88;1.90;;;;;;;16.22;94.06;93683.03;5059692;28;20052;-78
2022/07/14 05:52:15;;;;;;;3.60;1.88;;;;;;;16.58;90.94;93682.84;5053661;28;20452;-78
2022/07/14 05:54:42;;;;;;;4.32;1.60;;;;;;;16.86;89.17;93683.78;5070513;28;20044;-79
2022/07/14 05:57:09;;;;;;;5.13;1.65;;;;;;;17.21;84.87;93678.34;5070717;28;20056;-78
2022/07/14 05:59:36;;;;;;;4.40;1.55;;;;;;;17.45;82.08;93666.97;5069642;28;20044;-78
2022/07/14 06:02:05;;;;;;;4.28;1.70;;;;;;;17.93;79.49;93672.44;5070754;28;20053;-79
2022/07/14 06:04:31;;;;;;;7.13;1.38;;;;;;;18.27;73.56;93679.28;5070502;28;20051;-79
2022/07/14 06:06:58;;;;;;;4.25;1.20;;;;;;;18.49;73.03;93674.03;5070263;28;20044;-79
2022/07/14 06:09:25;;;;;;;3.67;1.42;;;;;;;18.80;72.88;93674.25;5070545;28;20098;-79
2022/07/14 06:11:51;;;;;;;5.72;1.38;;;;;;;19.19;69.57;93678.44;5070399;28;20109;-79
2022/07/14 06:14:18;;;;;;;6.00;2.15;;;;;;;19.50;69.78;93670.78;5070001;28;20098;-77
2022/07/14 06:16:45;;;;;;;4.68;1.80;;;;;;;19.84;69.06;93664.41;5070307;28;20109;-78
2022/07/14 06:19:13;;;;;;;6.10;1.95;;;;;;;20.14;65.02;93660.31;5070143;28;20074;-78
2022/07/14 06:21:40;;;;;;;3.35;1.65;;;;;;;19.98;60.51;93646.47;5070137;28;20094;-79
2022/07/14 06:24:07;;;;;;;3.35;1.10;;;;;;;20.20;60.13;93658.50;5070101;28;20510;-79
2022/07/14 06:26:34;;;;;;;2.22;1.13;;;;;;;20.60;61.16;93647.56;5070370;28;20086;-78
2022/07/14 06:29:01;;;;;;;3.42;1.00;;;;;;;21.06;57.64;93658.00;5070358;28;20055;-79
2022/07/14 06:31:28;;;;;;;1.98;0.80;;;;;;;21.00;51.35;93663.47;5070150;28;20044;-78
2022/07/14 06:33:55;;;;;;;3.65;1.13;;;;;;;21.09;53.00;93649.66;5070158;28;20052;-78
2022/07/14 06:36:23;;;;;;;1.90;0.80;;;;;;;21.49;50.57;93656.84;5069652;28;20129;-78
2022/07/14 06:38:50;;;;;;;4.35;1.00;;;;;;;21.59;51.37;93667.28;5069803;28;20048;-78
2022/07/14 06:41:17;;;;;;;4.20;0.93;;;;;;;21.92;50.97;93647.78;5070121;28;20452;-79
2022/07/14 06:43:43;;;;;;;3.85;1.13;;;;;;;22.09;48.85;93653.47;5069524;28;20040;-78
2022/07/14 06:46:14;;;;;;;2.35;1.38;;;;;;;21.48;50.38;93652.69;5069156;28;20098;-78
2022/07/14 06:48:41;;;;;;;3.28;0.90;;;;;;;22.29;50.55;93654.38;5069701;28;20512;-77
2022/07/14 06:51:08;;;;;;;3.47;1.17;;;;;;;22.77;50.44;93635.44;5069385;28;20041;-78
2022/07/14 06:53:37;;;;;;;4.53;1.73;;;;;;;23.31;49.48;93653.81;5069825;28;20071;-77
2022/07/14 06:56:04;;;;;;;3.08;1.00;;;;;;;23.76;50.35;93650.94;5069747;28;20044;-78
2022/07/14 06:58:32;;;;;;;2.08;0.90;;;;;;;24.13;49.46;93646.03;5069349;28;20049;-78
2022/07/14 07:00:59;;;;;;;2.78;1.17;;;;;;;24.33;46.94;93643.38;5069259;28;20102;-78
2022/07/14 07:03:26;;;;;;;2.92;1.45;;;;;;;24.61;46.28;93635.59;5069777;28;20048;-78
2022/07/14 07:08:38;;;;;;;1.63;0.80;;;;;;;25.11;44.42;93629.81;5069423;28;20532;-79
2022/07/14 07:11:05;;;;;;;2.10;1.00;;;;;;;24.30;47.13;93631.59;5069316;28;20056;-78
2022/07/14 07:13:32;;;;;;;4.07;0.82;;;;;;;24.36;47.20;93637.56;5069080;28;20049;-79
2022/07/14 07:15:59;;;;;;;3.42;0.82;;;;;;;24.48;47.28;93603.75;5069225;28;20110;-79
2022/07/14 07:18:26;;;;;;;6.60;1.17;;;;;;;24.65;46.66;93626.09;5069572;28;20048;-79
2022/07/14 07:20:52;;;;;;;2.72;1.08;;;;;;;25.03;46.28;93631.25;5069019;28;20098;-78
2022/07/14 07:23:19;;;;;;;3.30;1.10;;;;;;;25.29;44.12;93632.63;5069243;28;20048;-79
2022/07/14 07:25:47;;;;;;;3.58;0.98;;;;;;;25.13;44.23;93630.28;5069467;28;20090;-80
2022/07/14 07:28:14;;;;;;;4.35;0.70;;;;;;;24.61;45.27;93627.72;5069298;28;20093;-79
2022/07/14 07:30:41;;;;;;;3.88;0.90;;;;;;;24.02;46.86;93632.25;5069227;28;20090;-80
2022/07/14 07:33:08;;;;;;;9.45;1.40;;;;;;;23.83;48.55;93634.84;5069037;28;20098;-82
2022/07/14 07:35:34;;;;;;;10.82;1.50;;;;;;;23.75;48.87;93644.13;5069239;28;20049;-80
2022/07/14 07:38:01;;;;;;;12.68;2.20;;;;;;;24.29;49.14;93640.53;5069439;28;20463;-80
2022/07/14 07:40:28;;;;;;;5.85;1.83;;;;;;;24.14;47.09;93639.72;5069340;28;20091;-80
2022/07/14 07:42:56;;;;;;;1.63;0.70;;;;;;;23.56;47.07;93636.22;5069204;28;20052;-80
2022/07/14 07:45:23;;;;;;;11.90;1.08;;;;;;;23.72;48.11;93634.22;5068748;28;20102;-79
2022/07/14 07:47:51;;;;;;;2.78;0.73;;;;;;;22.93;46.40;93635.31;5069044;28;20098;-79
2022/07/14 07:50:18;;;;;;;1.85;0.70;;;;;;;23.62;46.78;93629.84;5068825;28;20051;-78
2022/07/14 07:52:45;;;;;;;2.70;0.73;;;;;;;23.05;46.51;93638.31;5068918;28;20045;-77
2022/07/14 07:55:13;;;;;;;4.32;0.90;;;;;;;23.32;47.00;93625.75;5068850;28;20048;-80
2022/07/14 07:57:40;;;;;;;2.05;1.05;;;;;;;22.69;47.52;93621.09;5068686;28;20113;-80
2022/07/14 08:00:13;;;;;;;1.98;0.90;;;;;;;22.96;46.91;93619.81;5067463;28;20055;-79
2022/07/14 08:02:45;;;;;;;3.58;0.73;;;;;;;23.03;47.42;93619.50;5065565;28;20476;-80
2022/07/14 08:05:12;;;;;;;2.35;1.05;;;;;;;23.39;49.94;93610.50;5066516;28;21001;-78
2022/07/14 08:07:39;;;;;;;3.03;1.20;;;;;;;23.21;47.77;93623.25;5067839;28;20040;-80
2022/07/14 08:10:07;;;;;;;3.75;1.08;;;;;;;23.23;47.64;93615.88;5068361;28;20037;-80
2022/07/14 08:12:34;;;;;;;1.55;1.10;;;;;;;23.46;45.42;93608.28;5069131;28;20045;-80
2022/07/14 08:15:00;;;;;;;4.55;0.82;;;;;;;23.33;46.21;93595.88;5068754;28;20117;-81
2022/07/14 08:17:29;;;;;;;2.13;0.90;;;;;;;23.75;47.14;93614.50;5068800;28;20074;-81
2022/07/14 08:19:55;;;;;;;1.88;0.57;;;;;;;23.97;46.90;93607.94;5068733;28;20045;-81
2022/07/14 08:22:23;;;;;;;3.17;1.20;;;;;;;24.10;46.20;93604.59;5070796;28;20101;-81
2022/07/14 08:24:50;;;;;;;3.35;0.50;;;;;;;24.34;43.14;93610.84;5072207;28;20501;-80
2022/07/14 08:27:17;;;;;;;2.55;0.50;;;;;;;24.15;42.22;93616.88;5072483;28;20044;-80
2022/07/14 08:29:44;;;;;;;4.88;0.50;;;;;;;24.32;42.91;93616.38;5072604;28;20079;-81
2022/07/14 08:32:10;;;;;;;1.45;0.60;;;;;;;24.56;42.99;93612.84;5057821;28;20539;-81
2022/07/14 08:34:39;;;;;;;2.00;1.02;;;;;;;24.59;40.81;93607.03;5072056;28;20489;-80
2022/07/14 08:37:06;;;;;;;2.42;0.57;;;;;;;24.65;41.65;93595.34;5072332;28;20149;-80
2022/07/14 08:39:34;;;;;;;1.40;0.63;;;;;;;24.47;41.31;93601.41;5072203;28;20473;-80
2022/07/14 08:42:01;;;;;;;2.17;0.70;;;;;;;24.99;43.18;93606.59;5071876;28;20453;-80
2022/07/14 08:44:29;;;;;;;2.05;0.50;;;;;;;24.68;40.44;93607.91;5071756;28;20052;-79
2022/07/14 08:46:56;;;;;;;0.85;0.40;;;;;;;24.34;39.41;93589.84;5062829;28;20048;-80
2022/07/14 08:49:23;;;;;;;2.95;0.52;;;;;;;24.06;39.32;93598.34;5070662;28;20090;-78
2022/07/14 08:51:52;;;;;;;2.97;0.60;;;;;;;23.76;40.26;93568.84;5071708;28;20189;-79
2022/07/14 08:54:19;;;;;;;1.02;0.47;;;;;;;24.32;38.58;93598.00;5071894;28;20098;-80
2022/07/14 08:56:46;;;;;;;1.58;0.40;;;;;;;24.64;39.05;93601.69;5071759;28;20048;-79
2022/07/14 08:59:12;;;;;;;2.03;0.65;;;;;;;24.63;37.80;93607.22;5071750;28;20051;-79
2022/07/14 09:01:39;;;;;;;2.13;0.40;;;;;;;24.75;40.25;93596.22;5071462;28;20048;-80
2022/07/14 09:04:06;;;;;;;1.73;0.73;;;;;;;25.16;39.32;93598.16;5071944;28;20041;-79
2022/07/14 09:06:58;;;;;;;2.40;0.60;;;;;;;25.07;39.85;93595.44;5071502;28;20048;-80
2022/07/14 09:09:26;;;;;;;12.82;0.70;;;;;;;24.98;39.34;93581.41;5052004;28;20052;-79
2022/07/14 09:11:55;;;;;;;1.45;0.73;;;;;;;25.29;41.35;93599.25;5071460;28;20494;-79
2022/07/14 09:14:22;;;;;;;2.88;0.68;;;;;;;25.88;40.08;93589.91;5071769;28;20044;-79
2022/07/14 09:16:49;;;;;;;4.07;1.77;;;;;;;26.30;38.56;93589.81;5070937;28;20493;-79
2022/07/14 09:19:18;;;;;;;2.42;0.85;;;;;;;26.03;37.74;93588.81;5071244;28;20520;-79
2022/07/14 09:21:47;;;;;;;2.13;0.70;;;;;;;25.99;36.94;93583.34;5071388;28;20048;-80
2022/07/14 09:24:16;;;;;;;1.70;0.90;;;;;;;26.24;36.55;93549.63;5071676;28;20041;-79
2022/07/14 09:26:44;;;;;;;8.27;4.20;;;;;;;26.61;35.77;93581.13;5071044;28;20044;-80
2022/07/14 09:29:17;;;;;;;8.05;3.35;;;;;;;26.04;37.32;93564.03;5070999;28;20093;-80
2022/07/14 09:31:45;;;;;;;4.45;1.70;;;;;;;25.38;36.77;93580.13;5070875;28;20075;-80
2022/07/14 09:34:25;;;;;;;5.07;1.75;;;;;;;25.27;36.82;93585.59;5070857;28;20037;-78
2022/07/14 09:36:52;;;;;;;2.38;0.73;;;;;;;25.00;37.69;93576.66;5070957;28;20048;-79
2022/07/14 09:39:21;;;;;;;2.25;0.57;;;;;;;26.01;39.23;93554.88;5071082;28;20110;-79
2022/07/14 09:41:52;;;;;;;1.20;0.50;;;;;;;26.38;38.24;93564.59;5070807;28;20045;-80
2022/07/14 09:44:20;;;;;;;2.33;0.50;;;;;;;27.05;35.56;93573.47;5071038;28;20055;-80
2022/07/14 09:46:49;;;;;;;1.98;0.68;;;;;;;26.97;37.21;93565.53;5070584;28;20056;-80
2022/07/14 09:49:17;;;;;;;2.53;0.70;;;;;;;27.48;36.84;93566.75;5071006;28;20090;-79
2022/07/14 09:51:55;;;;;;;1.42;0.40;;;;;;;27.20;34.33;93568.84;5070525;28;20168;-79
2022/07/14 09:54:46;;;;;;;3.15;0.70;;;;;;;26.02;36.90;93571.47;5070461;28;20493;-80
2022/07/14 09:57:22;;;;;;;1.80;0.60;;;;;;;25.85;35.60;93559.72;5070393;28;20048;-79
2022/07/14 09:59:49;;;;;;;;;;;;;;;25.29;37.55;93565.06;5071236;28;20053;-78
2022/07/14 10:02:19;;;;;;;1.50;0.63;;;;;;;25.48;37.47;93562.31;5070183;28;19920;-79
2022/07/14 10:04:47;;;;;;;2.97;0.88;;;;;;;25.82;37.10;93562.16;5070990;28;20044;-79
2022/07/14 10:07:16;;;;;;;2.58;0.60;;;;;;;26.02;38.90;93542.50;5070762;28;20049;-81
2022/07/14 10:09:49;;;;;;;1.63;0.75;;;;;;;26.72;38.05;93554.53;5070544;28;20040;-80
2022/07/14 10:12:16;;;;;;;1.15;0.60;;;;;;;26.89;37.15;93553.84;5067124;28;20387;-79
2022/07/14 10:14:43;;;;;;;1.83;0.68;;;;;;;26.77;37.36;93542.03;5068554;28;20045;-80
2022/07/14 10:17:11;;;;;;;1.77;0.73;;;;;;;27.17;35.25;93545.75;5069839;28;20056;-80
2022/07/14 10:19:38;;;;;;;1.40;0.70;;;;;;;27.81;35.90;93541.81;5070317;28;20110;-80
2022/07/14 10:22:06;;;;;;;1.63;0.65;;;;;;;27.58;35.00;93543.81;5070014;28;20048;-80
2022/07/14 10:24:33;;;;;;;2.72;0.60;;;;;;;28.27;35.53;93539.63;5069706;28;20551;-80
2022/07/14 10:27:03;;;;;;;4.55;2.28;;;;;;;27.83;35.61;93534.38;5070062;28;20040;-80
2022/07/14 10:29:30;;;;;;;2.08;0.98;;;;;;;28.23;34.45;93540.59;5070049;28;20056;-79
2022/07/14 10:32:12;;;;;;;1.02;0.50;;;;;;;26.65;35.33;93539.94;5069856;28;20490;-78
2022/07/14 10:34:46;;;;;;;1.80;0.70;;;;;;;26.21;36.99;93533.63;5069774;28;20110;-80
2022/07/14 10:37:20;;;;;;;1.85;0.60;;;;;;;26.25;38.31;93522.22;5069803;28;20052;-80
2022/07/14 10:39:54;;;;;;;1.70;0.70;;;;;;;26.13;36.64;93516.69;5069934;28;20193;-81
2022/07/14 10:42:31;;;;;;;1.33;0.60;;;;;;;26.88;37.10;93526.69;5069321;28;20052;-81
2022/07/14 10:45:01;;;;;;;2.20;0.85;;;;;;;27.70;38.27;93524.72;5069064;28;20059;-81
2022/07/14 10:47:43;;;;;;;2.22;0.80;;;;;;;26.95;36.55;93516.50;5069782;28;20067;-80
2022/07/14 10:50:12;;;;;;;1.63;0.80;;;;;;;27.72;37.08;93515.41;5069706;28;20044;-81
2022/07/14 10:52:48;;;;;;;3.30;0.73;;;;;;;27.78;36.13;93518.69;5069751;28;20045;-80
2022/07/14 10:55:17;;;;;;;2.22;1.10;;;;;;;28.06;36.58;93513.09;5069654;28;20052;-80
2022/07/14 10:58:21;;;;;;;3.05;0.90;;;;;;;28.40;34.42;93508.06;5069496;28;20052;-80
2022/07/14 11:00:56;;;;;;;;;;;;;;;28.09;35.62;93509.03;5069848;28;20052;-81
2022/07/14 11:03:25;;;;;;;1.92;0.75;;;;;;;27.28;36.30;93517.22;5064322;28;19975;-80
2022/07/14 11:06:13;;;;;;;2.00;1.00;;;;;;;27.44;35.68;93496.47;5048842;28;20063;-80
2022/07/14 11:08:41;;;;;;;3.33;0.95;;;;;;;26.71;35.33;93511.63;5051840;28;20423;-80
2022/07/14 11:11:17;;;;;;;2.85;0.73;;;;;;;26.84;36.05;93502.03;5057261;28;20053;-81
2022/07/14 11:14:02;;;;;;;;;;;;;;;27.81;35.93;93501.47;5067027;28;20394;-80
2022/07/14 11:16:57;;;;;;;2.92;1.40;;;;;;;27.30;35.34;93507.91;5068352;28;20263;-79
2022/07/14 11:19:30;;;;;;;3.60;0.68;;;;;;;27.41;34.50;93489.94;5068473;28;20048;-81
2022/07/14 11:22:14;;;;;;;8.48;1.35;;;;;;;27.78;35.60;93508.13;5068487;28;20387;-80
2022/07/14 11:24:53;;;;;;;1.50;0.80;;;;;;;28.21;33.86;93487.25;5068729;28;20127;-80
2022/07/14 11:27:28;;;;;;;2.88;0.60;;;;;;;28.50;35.18;93481.28;5068460;28;20060;-80
2022/07/14 11:29:57;;;;;;;2.28;0.85;;;;;;;28.39;35.28;93488.03;5062993;28;20082;-79
2022/07/14 11:32:33;;;;;;;1.60;0.82;;;;;;;28.12;35.30;93461.66;5069388;28;20052;-80
2022/07/14 11:37:59;;;;;;;2.23;0.80;;;;;;;27.62;36.69;93486.69;5069061;28;20066;-79
2022/07/14 11:40:43;;;;;;;2.90;0.70;;;;;;;28.22;35.80;93475.59;5065968;28;20118;-80
2022/07/14 11:43:41;;;;;;;2.33;1.03;;;;;;;28.50;36.97;93476.00;5066070;28;20040;-80
2022/07/14 11:46:10;;;;;;;1.77;0.98;;;;;;;28.89;35.18;93480.53;5023893;28;20048;-82
2022/07/14 11:48:40;;;;;;;1.63;0.77;;;;;;;28.89;33.12;93485.81;5069229;28;20476;-80
2022/07/14 11:51:09;;;;;;;1.65;0.90;;;;;;;28.48;34.46;93475.56;5069267;28;20123;-80
2022/07/14 11:53:38;;;;;;;4.35;1.13;;;;;;;27.88;36.37;93465.59;5068772;28;20049;-80
2022/07/14 11:56:07;;;;;;;2.10;0.80;;;;;;;27.52;34.43;93481.69;5068858;28;20508;-81
2022/07/14 11:58:37;;;;;;;3.53;0.70;;;;;;;27.69;34.56;93468.56;5072728;28;20052;-80
2022/07/14 12:01:05;;;;;;;2.40;0.90;;;;;;;27.85;36.33;93463.56;5072616;28;20155;-81